sensor_id;sensor_type;location;lat;lon;timestamp;pressure;altitude;pressure_sealevel;temperature;humidity
55315;BME280;41619;42.816;23.226;2022-12-18T00:01:38;96292.50;;;5.24;80.29
55315;BME280;41619;42.816;23.226;2022-12-18T00:04:04;96290.09;;;5.23;80.24
55315;BME280;41619;42.816;23.226;2022-12-18T00:06:31;96295.31;;;5.19;80.52
55315;BME280;41619;42.816;23.226;2022-12-18T00:08:58;96302.97;;;5.17;81.11
55315;BME280;41619;42.816;23.226;2022-12-18T00:11:27;96304.09;;;5.16;80.33
55315;BME280;41619;42.816;23.226;2022-12-18T00:13:55;96304.41;;;5.14;80.60
55315;BME280;41619;42.816;23.226;2022-12-18T00:16:22;96306.94;;;5.11;80.59
55315;BME280;41619;42.816;23.226;2022-12-18T00:18:51;96305.03;;;5.11;80.20
55315;BME280;41619;42.816;23.226;2022-12-18T00:21:17;96311.56;;;5.10;80.56
55315;BME280;41619;42.816;23.226;2022-12-18T00:23:44;96318.41;;;5.08;79.80
55315;BME280;41619;42.816;23.226;2022-12-18T00:26:19;96328.47;;;5.07;80.05
55315;BME280;41619;42.816;23.226;2022-12-18T00:28:45;96341.53;;;5.05;80.48
55315;BME280;41619;42.816;23.226;2022-12-18T00:31:14;96350.31;;;5.02;79.94
55315;BME280;41619;42.816;23.226;2022-12-18T00:33:40;96345.16;;;5.01;79.95
55315;BME280;41619;42.816;23.226;2022-12-18T00:36:09;96352.31;;;4.97;79.68
55315;BME280;41619;42.816;23.226;2022-12-18T00:38:36;96347.19;;;4.95;79.79
55315;BME280;41619;42.816;23.226;2022-12-18T00:41:02;96339.84;;;4.96;80.36
55315;BME280;41619;42.816;23.226;2022-12-18T00:43:27;96344.00;;;4.93;79.61
55315;BME280;41619;42.816;23.226;2022-12-18T00:45:53;96332.66;;;4.91;79.95
55315;BME280;41619;42.816;23.226;2022-12-18T00:48:18;96343.81;;;4.90;79.77
55315;BME280;41619;42.816;23.226;2022-12-18T00:50:44;96336.78;;;4.89;79.76
55315;BME280;41619;42.816;23.226;2022-12-18T00:53:10;96351.75;;;4.86;80.07
55315;BME280;41619;42.816;23.226;2022-12-18T00:55:37;96340.91;;;4.86;79.99
55315;BME280;41619;42.816;23.226;2022-12-18T00:58:04;96350.47;;;4.83;80.12
55315;BME280;41619;42.816;23.226;2022-12-18T01:00:29;96352.66;;;4.81;79.96
55315;BME280;41619;42.816;23.226;2022-12-18T01:02:54;96347.53;;;4.80;80.11
55315;BME280;41619;42.816;23.226;2022-12-18T01:05:20;96348.97;;;4.77;79.55
55315;BME280;41619;42.816;23.226;2022-12-18T01:07:45;96348.47;;;4.75;80.02
55315;BME280;41619;42.816;23.226;2022-12-18T01:10:12;96343.34;;;4.74;79.70
55315;BME280;41619;42.816;23.226;2022-12-18T01:12:38;96343.97;;;4.71;79.93
55315;BME280;41619;42.816;23.226;2022-12-18T01:15:13;96357.03;;;4.69;79.88
55315;BME280;41619;42.816;23.226;2022-12-18T01:17:38;96360.84;;;4.68;79.36
55315;BME280;41619;42.816;23.226;2022-12-18T01:20:04;96357.94;;;4.64;79.65
55315;BME280;41619;42.816;23.226;2022-12-18T01:22:30;96355.84;;;4.61;79.55
55315;BME280;41619;42.816;23.226;2022-12-18T01:24:55;96356.75;;;4.56;79.68
55315;BME280;41619;42.816;23.226;2022-12-18T01:27:21;96362.28;;;4.51;80.01
55315;BME280;41619;42.816;23.226;2022-12-18T01:29:46;96353.66;;;4.49;79.74
55315;BME280;41619;42.816;23.226;2022-12-18T01:32:11;96366.72;;;4.47;79.67
55315;BME280;41619;42.816;23.226;2022-12-18T01:34:37;96365.41;;;4.45;79.82
55315;BME280;41619;42.816;23.226;2022-12-18T01:37:03;96363.00;;;4.43;79.37
55315;BME280;41619;42.816;23.226;2022-12-18T01:39:29;96373.84;;;4.43;79.29
55315;BME280;41619;42.816;23.226;2022-12-18T01:41:55;96361.38;;;4.42;79.26
55315;BME280;41619;42.816;23.226;2022-12-18T01:44:55;96365.50;;;4.40;79.44
55315;BME280;41619;42.816;23.226;2022-12-18T01:47:35;96370.75;;;4.36;79.09
55315;BME280;41619;42.816;23.226;2022-12-18T01:50:14;96367.34;;;4.31;78.91
55315;BME280;41619;42.816;23.226;2022-12-18T01:52:42;96369.03;;;4.26;79.33
55315;BME280;41619;42.816;23.226;2022-12-18T01:55:10;96371.84;;;4.21;78.76
55315;BME280;41619;42.816;23.226;2022-12-18T01:57:38;96374.69;;;4.16;79.42
55315;BME280;41619;42.816;23.226;2022-12-18T02:00:08;96388.91;;;4.08;78.75
55315;BME280;41619;42.816;23.226;2022-12-18T02:02:35;96385.00;;;4.01;79.25
55315;BME280;41619;42.816;23.226;2022-12-18T02:05:01;96381.66;;;3.90;79.13
55315;BME280;41619;42.816;23.226;2022-12-18T02:10:23;96382.69;;;3.80;79.25
55315;BME280;41619;42.816;23.226;2022-12-18T02:18:27;96390.38;;;3.59;78.95
55315;BME280;41619;42.816;23.226;2022-12-18T02:26:56;96406.47;;;3.51;79.32
55315;BME280;41619;42.816;23.226;2022-12-18T02:29:31;96410.78;;;3.52;79.20
55315;BME280;41619;42.816;23.226;2022-12-18T02:31:59;96410.22;;;3.55;79.26
55315;BME280;41619;42.816;23.226;2022-12-18T02:34:29;96415.94;;;3.53;78.88
55315;BME280;41619;42.816;23.226;2022-12-18T02:36:56;96420.25;;;3.54;79.13
55315;BME280;41619;42.816;23.226;2022-12-18T02:39:25;96425.91;;;3.53;79.21
55315;BME280;41619;42.816;23.226;2022-12-18T02:41:52;96421.59;;;3.52;79.11
55315;BME280;41619;42.816;23.226;2022-12-18T02:44:17;96424.41;;;3.47;79.00
55315;BME280;41619;42.816;23.226;2022-12-18T02:46:46;96422.31;;;3.44;78.86
55315;BME280;41619;42.816;23.226;2022-12-18T02:52:11;96419.88;;;3.42;79.02
55315;BME280;41619;42.816;23.226;2022-12-18T02:59:58;96420.28;;;3.36;79.20
55315;BME280;41619;42.816;23.226;2022-12-18T03:02:46;96436.22;;;3.37;78.80
55315;BME280;41619;42.816;23.226;2022-12-18T03:05:20;96438.69;;;3.33;79.26
55315;BME280;41619;42.816;23.226;2022-12-18T03:07:53;96443.28;;;3.33;79.32
55315;BME280;41619;42.816;23.226;2022-12-18T03:10:27;96446.00;;;3.33;78.79
55315;BME280;41619;42.816;23.226;2022-12-18T03:13:07;96451.13;;;3.34;78.90
55315;BME280;41619;42.816;23.226;2022-12-18T03:15:42;96456.25;;;3.36;78.76
55315;BME280;41619;42.816;23.226;2022-12-18T03:18:13;96455.16;;;3.37;78.94
55315;BME280;41619;42.816;23.226;2022-12-18T03:20:42;96450.84;;;3.36;79.01
55315;BME280;41619;42.816;23.226;2022-12-18T03:23:12;96453.00;;;3.34;78.78
55315;BME280;41619;42.816;23.226;2022-12-18T03:25:42;96454.13;;;3.33;78.77
55315;BME280;41619;42.816;23.226;2022-12-18T03:28:16;96459.78;;;3.37;78.72
55315;BME280;41619;42.816;23.226;2022-12-18T03:30:46;96460.28;;;3.39;78.52
55315;BME280;41619;42.816;23.226;2022-12-18T03:33:31;96468.09;;;3.40;78.68
55315;BME280;41619;42.816;23.226;2022-12-18T03:36:00;96481.94;;;3.39;78.64
55315;BME280;41619;42.816;23.226;2022-12-18T03:38:25;96483.03;;;3.38;78.50
55315;BME280;41619;42.816;23.226;2022-12-18T03:41:19;96489.53;;;3.37;78.88
55315;BME280;41619;42.816;23.226;2022-12-18T03:43:51;96500.06;;;3.38;78.57
55315;BME280;41619;42.816;23.226;2022-12-18T03:46:28;96498.66;;;3.41;78.54
55315;BME280;41619;42.816;23.226;2022-12-18T03:49:09;96507.94;;;3.34;78.75
55315;BME280;41619;42.816;23.226;2022-12-18T03:51:43;96511.53;;;3.30;78.14
55315;BME280;41619;42.816;23.226;2022-12-18T03:54:14;96519.13;;;3.28;78.17
55315;BME280;41619;42.816;23.226;2022-12-18T03:56:45;96511.81;;;3.28;77.95
55315;BME280;41619;42.816;23.226;2022-12-18T03:59:12;96506.41;;;3.28;78.23
55315;BME280;41619;42.816;23.226;2022-12-18T04:01:45;96519.34;;;3.31;78.07
55315;BME280;41619;42.816;23.226;2022-12-18T04:04:12;96518.25;;;3.32;78.13
55315;BME280;41619;42.816;23.226;2022-12-18T04:06:40;96517.44;;;3.32;78.21
55315;BME280;41619;42.816;23.226;2022-12-18T04:09:07;96519.84;;;3.33;78.24
55315;BME280;41619;42.816;23.226;2022-12-18T04:11:33;96514.75;;;3.32;77.80
55315;BME280;41619;42.816;23.226;2022-12-18T04:13:58;96516.06;;;3.34;77.80
55315;BME280;41619;42.816;23.226;2022-12-18T04:16:26;96518.75;;;3.34;77.87
55315;BME280;41619;42.816;23.226;2022-12-18T04:18:51;96533.38;;;3.33;77.64
55315;BME280;41619;42.816;23.226;2022-12-18T04:21:17;96530.13;;;3.37;77.44
55315;BME280;41619;42.816;23.226;2022-12-18T04:23:42;96533.63;;;3.37;77.40
55315;BME280;41619;42.816;23.226;2022-12-18T04:26:07;96536.34;;;3.37;77.13
55315;BME280;41619;42.816;23.226;2022-12-18T04:28:33;96532.03;;;3.36;77.48
55315;BME280;41619;42.816;23.226;2022-12-18T04:30:58;96533.13;;;3.35;77.58
55315;BME280;41619;42.816;23.226;2022-12-18T04:33:24;96538.53;;;3.35;77.24
55315;BME280;41619;42.816;23.226;2022-12-18T04:35:49;96537.94;;;3.38;77.39
55315;BME280;41619;42.816;23.226;2022-12-18T04:38:14;96533.34;;;3.39;77.70
55315;BME280;41619;42.816;23.226;2022-12-18T04:40:40;96543.34;;;3.38;77.58
55315;BME280;41619;42.816;23.226;2022-12-18T04:43:06;96544.22;;;3.33;77.18
55315;BME280;41619;42.816;23.226;2022-12-18T04:45:32;96546.91;;;3.33;76.87
55315;BME280;41619;42.816;23.226;2022-12-18T04:47:58;96552.63;;;3.32;76.89
55315;BME280;41619;42.816;23.226;2022-12-18T04:50:23;96556.94;;;3.33;76.75
55315;BME280;41619;42.816;23.226;2022-12-18T04:52:49;96556.13;;;3.32;76.85
55315;BME280;41619;42.816;23.226;2022-12-18T04:55:15;96561.03;;;3.30;76.24
55315;BME280;41619;42.816;23.226;2022-12-18T04:57:40;96556.72;;;3.29;76.75
55315;BME280;41619;42.816;23.226;2022-12-18T05:00:06;96561.31;;;3.29;76.60
55315;BME280;41619;42.816;23.226;2022-12-18T05:02:32;96556.72;;;3.29;76.39
55315;BME280;41619;42.816;23.226;2022-12-18T05:04:57;96559.72;;;3.28;76.28
55315;BME280;41619;42.816;23.226;2022-12-18T05:07:23;96564.31;;;3.27;76.60
55315;BME280;41619;42.816;23.226;2022-12-18T05:09:48;96574.34;;;3.27;76.41
55315;BME280;41619;42.816;23.226;2022-12-18T05:12:13;96580.84;;;3.26;76.24
55315;BME280;41619;42.816;23.226;2022-12-18T05:14:39;96584.38;;;3.26;76.78
55315;BME280;41619;42.816;23.226;2022-12-18T05:17:04;96584.38;;;3.26;77.08
55315;BME280;41619;42.816;23.226;2022-12-18T05:19:30;96586.78;;;3.28;76.73
55315;BME280;41619;42.816;23.226;2022-12-18T05:21:55;96596.22;;;3.30;76.45
55315;BME280;41619;42.816;23.226;2022-12-18T05:24:20;96608.63;;;3.31;76.33
55315;BME280;41619;42.816;23.226;2022-12-18T05:26:46;96620.78;;;3.34;76.56
55315;BME280;41619;42.816;23.226;2022-12-18T05:29:11;96624.03;;;3.36;76.39
55315;BME280;41619;42.816;23.226;2022-12-18T05:31:38;96633.75;;;3.37;76.35
55315;BME280;41619;42.816;23.226;2022-12-18T05:34:03;96638.66;;;3.35;76.16
55315;BME280;41619;42.816;23.226;2022-12-18T05:36:29;96629.56;;;3.26;75.93
55315;BME280;41619;42.816;23.226;2022-12-18T05:38:54;96633.13;;;3.21;75.87
55315;BME280;41619;42.816;23.226;2022-12-18T05:41:20;96636.97;;;3.15;76.02
55315;BME280;41619;42.816;23.226;2022-12-18T05:43:45;96642.38;;;3.15;76.08
55315;BME280;41619;42.816;23.226;2022-12-18T05:46:16;96639.41;;;3.17;75.80
55315;BME280;41619;42.816;23.226;2022-12-18T05:48:43;96640.75;;;3.19;76.05
55315;BME280;41619;42.816;23.226;2022-12-18T05:51:11;96643.97;;;3.21;75.87
55315;BME280;41619;42.816;23.226;2022-12-18T05:53:38;96647.69;;;3.25;75.96
55315;BME280;41619;42.816;23.226;2022-12-18T05:56:05;96648.78;;;3.24;75.61
55315;BME280;41619;42.816;23.226;2022-12-18T05:58:31;96659.09;;;3.22;75.86
55315;BME280;41619;42.816;23.226;2022-12-18T06:00:57;96655.88;;;3.20;75.59
55315;BME280;41619;42.816;23.226;2022-12-18T06:03:23;96662.91;;;3.21;75.65
55315;BME280;41619;42.816;23.226;2022-12-18T06:05:48;96663.19;;;3.20;75.35
55315;BME280;41619;42.816;23.226;2022-12-18T06:08:14;96667.78;;;3.19;75.08
55315;BME280;41619;42.816;23.226;2022-12-18T06:10:40;96678.63;;;3.19;75.23
55315;BME280;41619;42.816;23.226;2022-12-18T06:13:06;96678.09;;;3.17;74.97
55315;BME280;41619;42.816;23.226;2022-12-18T06:15:32;96688.38;;;3.15;74.80
55315;BME280;41619;42.816;23.226;2022-12-18T06:17:58;96682.16;;;3.15;74.92
55315;BME280;41619;42.816;23.226;2022-12-18T06:20:25;96686.47;;;3.16;74.92
55315;BME280;41619;42.816;23.226;2022-12-18T06:22:50;96694.88;;;3.14;74.88
55315;BME280;41619;42.816;23.226;2022-12-18T06:25:16;96698.38;;;3.15;74.92
55315;BME280;41619;42.816;23.226;2022-12-18T06:27:41;96703.00;;;3.14;74.78
55315;BME280;41619;42.816;23.226;2022-12-18T06:30:07;96704.91;;;3.14;74.74
55315;BME280;41619;42.816;23.226;2022-12-18T06:32:33;96700.00;;;3.16;74.66
55315;BME280;41619;42.816;23.226;2022-12-18T06:34:58;96705.69;;;3.14;74.46
55315;BME280;41619;42.816;23.226;2022-12-18T06:37:24;96705.69;;;3.14;74.59
55315;BME280;41619;42.816;23.226;2022-12-18T06:39:51;96704.91;;;3.14;74.28
55315;BME280;41619;42.816;23.226;2022-12-18T06:42:17;96702.47;;;3.12;74.16
55315;BME280;41619;42.816;23.226;2022-12-18T06:44:42;96707.88;;;3.12;74.13
55315;BME280;41619;42.816;23.226;2022-12-18T06:47:08;96714.91;;;3.13;74.41
55315;BME280;41619;42.816;23.226;2022-12-18T06:49:33;96721.69;;;3.11;74.02
55315;BME280;41619;42.816;23.226;2022-12-18T06:51:58;96737.13;;;3.10;74.17
55315;BME280;41619;42.816;23.226;2022-12-18T06:54:24;96730.91;;;3.10;74.06
55315;BME280;41619;42.816;23.226;2022-12-18T06:56:49;96729.31;;;3.09;74.23
55315;BME280;41619;42.816;23.226;2022-12-18T06:59:14;96737.41;;;3.09;74.39
55315;BME280;41619;42.816;23.226;2022-12-18T07:01:40;96743.06;;;3.12;74.42
55315;BME280;41619;42.816;23.226;2022-12-18T07:04:05;96741.97;;;3.13;73.91
55315;BME280;41619;42.816;23.226;2022-12-18T07:06:31;96742.47;;;3.15;74.00
55315;BME280;41619;42.816;23.226;2022-12-18T07:08:56;96745.19;;;3.15;73.75
55315;BME280;41619;42.816;23.226;2022-12-18T07:11:22;96743.03;;;3.17;73.76
55315;BME280;41619;42.816;23.226;2022-12-18T07:13:47;96740.03;;;3.19;73.66
55315;BME280;41619;42.816;23.226;2022-12-18T07:16:18;96745.16;;;3.20;73.24
55315;BME280;41619;42.816;23.226;2022-12-18T07:18:44;96749.47;;;3.21;73.63
55315;BME280;41619;42.816;23.226;2022-12-18T07:21:17;96746.25;;;3.19;73.12
55315;BME280;41619;42.816;23.226;2022-12-18T07:23:43;96746.53;;;3.18;73.36
55315;BME280;41619;42.816;23.226;2022-12-18T07:26:12;96752.22;;;3.16;73.47
55315;BME280;41619;42.816;23.226;2022-12-18T07:28:39;96753.03;;;3.17;73.25
55315;BME280;41619;42.816;23.226;2022-12-18T07:31:13;96754.38;;;3.19;73.35
55315;BME280;41619;42.816;23.226;2022-12-18T07:33:39;96750.56;;;3.20;72.91
55315;BME280;41619;42.816;23.226;2022-12-18T07:36:06;96763.28;;;3.20;73.05
55315;BME280;41619;42.816;23.226;2022-12-18T07:38:33;96766.00;;;3.20;73.24
55315;BME280;41619;42.816;23.226;2022-12-18T07:41:04;96766.78;;;3.20;72.99
55315;BME280;41619;42.816;23.226;2022-12-18T07:43:29;96762.19;;;3.21;72.89
55315;BME280;41619;42.816;23.226;2022-12-18T07:45:55;96773.31;;;3.19;73.05
55315;BME280;41619;42.816;23.226;2022-12-18T07:48:20;96775.19;;;3.19;72.74
55315;BME280;41619;42.816;23.226;2022-12-18T07:50:46;96773.00;;;3.21;72.59
55315;BME280;41619;42.816;23.226;2022-12-18T07:53:11;96776.00;;;3.19;72.83
55315;BME280;41619;42.816;23.226;2022-12-18T07:55:36;96771.41;;;3.20;72.57
55315;BME280;41619;42.816;23.226;2022-12-18T07:58:03;96779.22;;;3.21;72.66
55315;BME280;41619;42.816;23.226;2022-12-18T08:00:28;96780.91;;;3.17;72.69
55315;BME280;41619;42.816;23.226;2022-12-18T08:02:54;96786.03;;;3.14;72.66
55315;BME280;41619;42.816;23.226;2022-12-18T08:05:19;96786.31;;;3.17;72.81
55315;BME280;41619;42.816;23.226;2022-12-18T08:07:46;96784.13;;;3.19;72.64
55315;BME280;41619;42.816;23.226;2022-12-18T08:10:12;96790.06;;;3.21;72.71
55315;BME280;41619;42.816;23.226;2022-12-18T08:12:37;96793.00;;;3.25;72.64
55315;BME280;41619;42.816;23.226;2022-12-18T08:15:03;96797.00;;;3.27;72.69
55315;BME280;41619;42.816;23.226;2022-12-18T08:17:28;96792.94;;;3.30;72.22
55315;BME280;41619;42.816;23.226;2022-12-18T08:19:54;96806.16;;;3.31;72.56
55315;BME280;41619;42.816;23.226;2022-12-18T08:22:19;96800.47;;;3.33;72.37
55315;BME280;41619;42.816;23.226;2022-12-18T08:24:44;96809.38;;;3.33;72.23
55315;BME280;41619;42.816;23.226;2022-12-18T08:27:10;96818.88;;;3.31;71.99
55315;BME280;41619;42.816;23.226;2022-12-18T08:29:35;96818.88;;;3.31;72.47
55315;BME280;41619;42.816;23.226;2022-12-18T08:32:01;96822.91;;;3.33;72.18
55315;BME280;41619;42.816;23.226;2022-12-18T08:34:26;96820.47;;;3.37;72.26
55315;BME280;41619;42.816;23.226;2022-12-18T08:36:51;96823.78;;;3.29;72.35
55315;BME280;41619;42.816;23.226;2022-12-18T08:39:17;96829.19;;;3.29;72.00
55315;BME280;41619;42.816;23.226;2022-12-18T08:41:42;96828.34;;;3.33;71.80
55315;BME280;41619;42.816;23.226;2022-12-18T08:44:28;96822.91;;;3.39;72.06
55315;BME280;41619;42.816;23.226;2022-12-18T08:47:02;96823.66;;;3.44;71.75
55315;BME280;41619;42.816;23.226;2022-12-18T08:49:28;96823.66;;;3.44;71.46
55315;BME280;41619;42.816;23.226;2022-12-18T08:51:57;96821.81;;;3.40;71.42
55315;BME280;41619;42.816;23.226;2022-12-18T08:54:23;96815.28;;;3.41;71.42
55315;BME280;41619;42.816;23.226;2022-12-18T08:56:48;96826.06;;;3.46;71.55
55315;BME280;41619;42.816;23.226;2022-12-18T08:59:15;96822.50;;;3.50;71.47
55315;BME280;41619;42.816;23.226;2022-12-18T09:01:41;96827.59;;;3.57;71.21
55315;BME280;41619;42.816;23.226;2022-12-18T09:04:08;96833.00;;;3.57;71.66
55315;BME280;41619;42.816;23.226;2022-12-18T09:06:34;96821.38;;;3.56;71.32
55315;BME280;41619;42.816;23.226;2022-12-18T09:08:59;96825.97;;;3.56;70.96
55315;BME280;41619;42.816;23.226;2022-12-18T09:11:26;96820.56;;;3.56;71.20
55315;BME280;41619;42.816;23.226;2022-12-18T09:13:53;96825.72;;;3.52;71.36
55315;BME280;41619;42.816;23.226;2022-12-18T09:16:19;96833.28;;;3.55;71.04
55315;BME280;41619;42.816;23.226;2022-12-18T09:18:45;96827.09;;;3.50;71.42
55315;BME280;41619;42.816;23.226;2022-12-18T09:21:13;96826.34;;;3.44;71.15
55315;BME280;41619;42.816;23.226;2022-12-18T09:23:40;96832.56;;;3.45;70.63
55315;BME280;41619;42.816;23.226;2022-12-18T09:26:06;96833.88;;;3.47;71.01
55315;BME280;41619;42.816;23.226;2022-12-18T09:28:31;96827.91;;;3.50;71.08
55315;BME280;41619;42.816;23.226;2022-12-18T09:30:57;96828.97;;;3.54;71.05
55315;BME280;41619;42.816;23.226;2022-12-18T09:33:22;96835.72;;;3.52;70.54
55315;BME280;41619;42.816;23.226;2022-12-18T09:35:47;96833.03;;;3.52;70.70
55315;BME280;41619;42.816;23.226;2022-12-18T09:38:16;96834.13;;;3.51;70.48
55315;BME280;41619;42.816;23.226;2022-12-18T09:40:51;96825.19;;;3.50;70.68
55315;BME280;41619;42.816;23.226;2022-12-18T09:43:42;96823.28;;;3.51;70.90
55315;BME280;41619;42.816;23.226;2022-12-18T09:46:15;96820.84;;;3.54;70.67
55315;BME280;41619;42.816;23.226;2022-12-18T09:48:47;96825.16;;;3.55;70.52
55315;BME280;41619;42.816;23.226;2022-12-18T09:54:21;96827.97;;;3.69;70.46
55315;BME280;41619;42.816;23.226;2022-12-18T09:56:48;96827.44;;;3.72;70.36
55315;BME280;41619;42.816;23.226;2022-12-18T09:59:32;96828.97;;;3.78;70.44
55315;BME280;41619;42.816;23.226;2022-12-18T10:01:59;96827.00;;;3.84;70.17
55315;BME280;41619;42.816;23.226;2022-12-18T10:04:26;96825.31;;;3.88;70.26
55315;BME280;41619;42.816;23.226;2022-12-18T10:09:28;96825.50;;;3.97;70.31
55315;BME280;41619;42.816;23.226;2022-12-18T10:14:59;96824.56;;;4.06;70.23
55315;BME280;41619;42.816;23.226;2022-12-18T10:20:02;96824.97;;;4.18;70.26
55315;BME280;41619;42.816;23.226;2022-12-18T10:27:45;96822.13;;;4.29;70.21
55315;BME280;41619;42.816;23.226;2022-12-18T10:30:19;96826.97;;;4.32;70.50
55315;BME280;41619;42.816;23.226;2022-12-18T10:32:45;96826.66;;;4.33;70.66
55315;BME280;41619;42.816;23.226;2022-12-18T10:35:18;96829.09;;;4.35;70.09
55315;BME280;41619;42.816;23.226;2022-12-18T10:38:06;96828.78;;;4.36;70.56
55315;BME280;41619;42.816;23.226;2022-12-18T10:40:33;96830.63;;;4.41;70.06
55315;BME280;41619;42.816;23.226;2022-12-18T10:43:13;96825.72;;;4.43;70.38
55315;BME280;41619;42.816;23.226;2022-12-18T10:45:40;96825.72;;;4.43;70.34
55315;BME280;41619;42.816;23.226;2022-12-18T10:48:18;96819.19;;;4.44;70.53
55315;BME280;41619;42.816;23.226;2022-12-18T10:50:47;96816.19;;;4.45;70.30
55315;BME280;41619;42.816;23.226;2022-12-18T10:53:19;96823.25;;;4.46;70.11
55315;BME280;41619;42.816;23.226;2022-12-18T10:55:46;96827.28;;;4.49;70.38
55315;BME280;41619;42.816;23.226;2022-12-18T11:01:10;96812.03;;;4.53;70.05
55315;BME280;41619;42.816;23.226;2022-12-18T11:03:58;96820.38;;;4.56;70.33
55315;BME280;41619;42.816;23.226;2022-12-18T11:06:25;96814.66;;;4.58;69.96
55315;BME280;41619;42.816;23.226;2022-12-18T11:09:05;96809.22;;;4.58;69.81
55315;BME280;41619;42.816;23.226;2022-12-18T11:11:32;96814.88;;;4.62;69.40
55315;BME280;41619;42.816;23.226;2022-12-18T11:13:59;96812.09;;;4.67;69.54
55315;BME280;41619;42.816;23.226;2022-12-18T11:16:28;96822.34;;;4.70;69.41
55315;BME280;41619;42.816;23.226;2022-12-18T11:19:13;96812.00;;;4.72;68.99
55315;BME280;41619;42.816;23.226;2022-12-18T11:21:43;96823.38;;;4.74;69.29
55315;BME280;41619;42.816;23.226;2022-12-18T11:24:20;96817.94;;;4.74;68.79
55315;BME280;41619;42.816;23.226;2022-12-18T11:26:47;96827.69;;;4.75;69.25
55315;BME280;41619;42.816;23.226;2022-12-18T11:29:18;96834.44;;;4.77;68.83
55315;BME280;41619;42.816;23.226;2022-12-18T11:31:47;96833.03;;;4.80;69.24
55315;BME280;41619;42.816;23.226;2022-12-18T11:34:19;96834.66;;;4.81;69.40
55315;BME280;41619;42.816;23.226;2022-12-18T11:36:48;96833.50;;;4.87;69.12
55315;BME280;41619;42.816;23.226;2022-12-18T11:41:56;96823.25;;;4.98;69.10
55315;BME280;41619;42.816;23.226;2022-12-18T11:44:45;96821.00;;;5.05;68.39
55315;BME280;41619;42.816;23.226;2022-12-18T11:47:16;96817.91;;;5.11;68.37
55315;BME280;41619;42.816;23.226;2022-12-18T11:49:47;96811.88;;;5.14;68.30
55315;BME280;41619;42.816;23.226;2022-12-18T11:52:37;96825.34;;;5.20;68.33
55315;BME280;41619;42.816;23.226;2022-12-18T11:55:27;96823.06;;;5.27;68.17
55315;BME280;41619;42.816;23.226;2022-12-18T11:58:06;96828.41;;;5.32;68.21
55315;BME280;41619;42.816;23.226;2022-12-18T12:06:51;96798.78;;;5.49;66.69
55315;BME280;41619;42.816;23.226;2022-12-18T12:16:24;96809.97;;;5.61;66.16
55315;BME280;41619;42.816;23.226;2022-12-18T12:18:37;96810.56;;;5.58;66.08
55315;BME280;41619;42.816;23.226;2022-12-18T12:21:11;96809.47;;;5.59;66.20
55315;BME280;41619;42.816;23.226;2022-12-18T12:26:33;96813.56;;;5.57;65.65
55315;BME280;41619;42.816;23.226;2022-12-18T12:37:06;96829.59;;;5.58;65.63
55315;BME280;41619;42.816;23.226;2022-12-18T12:39:37;96827.44;;;5.55;65.62
55315;BME280;41619;42.816;23.226;2022-12-18T12:42:15;96819.00;;;5.57;65.13
55315;BME280;41619;42.816;23.226;2022-12-18T12:45:05;96819.09;;;5.52;65.77
55315;BME280;41619;42.816;23.226;2022-12-18T12:47:37;96829.44;;;5.50;65.02
55315;BME280;41619;42.816;23.226;2022-12-18T12:50:12;96831.16;;;5.45;65.21
55315;BME280;41619;42.816;23.226;2022-12-18T12:52:44;96837.78;;;5.39;65.13
55315;BME280;41619;42.816;23.226;2022-12-18T12:55:22;96828.41;;;5.32;65.08
55315;BME280;41619;42.816;23.226;2022-12-18T13:00:35;96838.34;;;5.23;64.78
55315;BME280;41619;42.816;23.226;2022-12-18T13:05:54;96841.22;;;5.12;65.17
55315;BME280;41619;42.816;23.226;2022-12-18T13:08:28;96843.41;;;5.10;65.00
55315;BME280;41619;42.816;23.226;2022-12-18T13:10:55;96841.91;;;5.04;65.11
55315;BME280;41619;42.816;23.226;2022-12-18T13:13:52;96856.13;;;4.96;65.23
55315;BME280;41619;42.816;23.226;2022-12-18T13:16:22;96850.63;;;4.82;65.32
55315;BME280;41619;42.816;23.226;2022-12-18T13:18:52;96848.88;;;4.73;65.51
55315;BME280;41619;42.816;23.226;2022-12-18T13:21:29;96850.56;;;4.69;65.78
55315;BME280;41619;42.816;23.226;2022-12-18T13:23:56;96857.63;;;4.70;65.68
55315;BME280;41619;42.816;23.226;2022-12-18T13:34:14;96876.44;;;4.61;65.98
55315;BME280;41619;42.816;23.226;2022-12-18T13:36:41;96884.84;;;4.60;65.69
55315;BME280;41619;42.816;23.226;2022-12-18T13:44:37;96899.41;;;4.45;65.17
55315;BME280;41619;42.816;23.226;2022-12-18T13:47:26;96892.97;;;4.41;65.72
55315;BME280;41619;42.816;23.226;2022-12-18T13:49:54;96893.03;;;4.36;65.28
55315;BME280;41619;42.816;23.226;2022-12-18T13:52:28;96898.25;;;4.32;65.43
55315;BME280;41619;42.816;23.226;2022-12-18T13:54:56;96892.00;;;4.32;65.15
55315;BME280;41619;42.816;23.226;2022-12-18T13:59:54;96901.25;;;4.31;65.06
55315;BME280;41619;42.816;23.226;2022-12-18T14:02:27;96899.91;;;4.28;64.89
55315;BME280;41619;42.816;23.226;2022-12-18T14:04:54;96912.13;;;4.25;65.27
55315;BME280;41619;42.816;23.226;2022-12-18T14:07:24;96901.06;;;4.22;65.18
55315;BME280;41619;42.816;23.226;2022-12-18T14:09:52;96898.13;;;4.18;64.90
55315;BME280;41619;42.816;23.226;2022-12-18T14:12:24;96903.09;;;4.11;65.01
55315;BME280;41619;42.816;23.226;2022-12-18T14:15:40;96898.22;;;4.08;65.28
55315;BME280;41619;42.816;23.226;2022-12-18T14:18:18;96901.50;;;4.05;64.87
55315;BME280;41619;42.816;23.226;2022-12-18T14:20:45;96902.63;;;4.04;64.77
55315;BME280;41619;42.816;23.226;2022-12-18T14:23:39;96906.47;;;3.98;64.41
55315;BME280;41619;42.816;23.226;2022-12-18T14:26:24;96913.59;;;3.89;64.39
55315;BME280;41619;42.816;23.226;2022-12-18T14:28:52;96895.50;;;3.84;64.79
55315;BME280;41619;42.816;23.226;2022-12-18T14:31:27;96904.50;;;3.80;64.80
55315;BME280;41619;42.816;23.226;2022-12-18T14:33:53;96913.16;;;3.82;64.75
55315;BME280;41619;42.816;23.226;2022-12-18T14:36:24;96913.94;;;3.82;64.96
55315;BME280;41619;42.816;23.226;2022-12-18T14:38:52;96909.13;;;3.79;64.57
55315;BME280;41619;42.816;23.226;2022-12-18T14:41:20;96926.47;;;3.78;64.55